Aérodrome :
LOGIN :

S'inscrire | Disclaimer

   EN    FR    IT 

 










Légende :    VFR   VFR Marginal   IFR   IFR Intensif   IFR Très Intensif
Visi : 
Plafond : 
>= 8 km
>= 3000ft
5 à 8 km
1000 à 3000 ft
1500m à 5 km
500 à 1000 ft
800 à 1500m
200 à 500 ft
< 800m
< 200 ft
Symboles :   Orages  Brouillard  Fortes neiges  Fortes précipitations  Vent > 20 kt
SIGMETs :   Divers  Orages  Givrage  Turbulence  Onde Orograph.  Cendres Volcan.






- Altitude de l'aérodrome : 39 ft


ETNH - Hohn AB

DERNIER METAR :
  • 150420Z 18009KT 9999 BKN100 03/00 Q0990 BLU

METARs EXPIRÉS :
  • 150320Z 19009KT 9999 BKN100 03/00 Q0992 BLU
  • 150220Z 20008KT 9999 FEW040 03/01 Q0993 BLU+
  • 150120Z 23012KT 9999 SCT040 04/01 Q0993 BLU+

TAF TAF ETNH
Valide du 15 à 00h jusqu'au 15 à 12h UTC


142300Z 1500/1512 22015G25KT 9999 NSW SCT020 SCT040
TEMPO 1507/1510 20018G30KT 4000 RA SCT005 BKN008
TEMPO 1510/1512 23020G35KT 3000 SHRA BKN010 BKN020CB
PROB30 1510/1512 VRB20G40KT 2000 TSRA BKN005 BKN015CB BY ETGL



MET'MAP, la Météo Aéronautique d'un coup d'oeil ! - Copyright ORBIFLY Décembre 2007 - Disclaimer

ORBIFLY MET'MAP TEAM :

Programmation & Développement : Alexandra Zaïnal
Sur une idée originale de : Baudouin d'Aumeries
Assistance à la programmation : Marc-Olivier Méhu
Soutien technique & logistique : Manuel Goepfert

Contact : metmap@orbifly.com




SOURCES & CREDITS :

   NOAA